Time;durP1;ratioP1;P1;durP2;ratioP2;P2;SDS_P1;SDS_P2;PMS_P1;PMS_P2;Temp;Humidity;BMP_temperature;BMP_pressure;BME280_temperature;BME280_humidity;BME280_pressure;Samples;Min_cycle;Max_cycle;Signal;HPM_P1;HPM_P2
2022/01/19 00:01:11;;;;;;;;;16.00;14.75;;;;;7.43;63.12;102070.00;5058809;28;45485;-79
2022/01/19 00:03:36;;;;;;;;;14.75;13.25;;;;;7.42;62.97;102068.22;5059393;28;45300;-76
2022/01/19 00:06:02;;;;;;;;;17.00;15.25;;;;;7.37;62.99;102049.69;5059114;28;45492;-76
2022/01/19 00:08:29;;;;;;;;;40.25;35.75;;;;;7.44;62.86;102056.22;5058805;28;45441;-78
2022/01/19 00:10:54;;;;;;;;;51.75;43.25;;;;;7.42;62.95;102044.81;5058918;28;45493;-81
2022/01/19 00:13:20;;;;;;;;;67.75;53.00;;;;;7.44;62.96;102047.50;5059169;28;45428;-79
2022/01/19 00:15:47;;;;;;;;;71.25;57.50;;;;;7.42;62.77;102038.69;5059456;28;45308;-81
2022/01/19 00:18:15;;;;;;;;;61.25;47.25;;;;;7.44;62.52;102040.63;5057918;28;46278;-78
2022/01/19 00:20:41;;;;;;;;;56.50;46.25;;;;;7.43;62.70;102041.41;5058676;28;45378;-81
2022/01/19 00:23:06;;;;;;;;;68.00;54.25;;;;;7.43;62.50;102043.13;5058943;28;45352;-78
2022/01/19 00:25:32;;;;;;;;;61.00;51.25;;;;;7.45;62.35;102046.72;5059089;28;45441;-80
2022/01/19 00:27:58;;;;;;;;;44.25;37.25;;;;;7.44;62.41;102053.63;5058666;28;46080;-81
2022/01/19 00:30:27;;;;;;;;;24.25;20.25;;;;;7.43;62.37;102058.72;5058834;28;45331;-80
2022/01/19 00:32:53;;;;;;;;;23.75;19.50;;;;;7.42;62.95;102070.81;5058662;28;45501;-78
2022/01/19 00:35:18;;;;;;;;;33.50;25.00;;;;;7.39;62.98;102072.31;5058784;28;45307;-80
2022/01/19 00:37:44;;;;;;;;;26.25;23.25;;;;;7.38;63.09;102068.78;5058358;28;46284;-76
2022/01/19 00:40:14;;;;;;;;;32.50;31.25;;;;;7.25;64.42;102054.06;5057200;28;45779;-73
2022/01/19 00:42:40;;;;;;;;;67.00;53.00;;;;;7.19;64.44;102042.38;5058694;28;45468;-80
2022/01/19 00:45:06;;;;;;;;;44.00;36.25;;;;;7.26;64.30;102050.69;5058816;28;45192;-80
2022/01/19 00:47:33;;;;;;;;;79.50;61.25;;;;;7.16;64.45;102030.06;5058369;28;45535;-78
2022/01/19 00:49:58;;;;;;;;;69.75;54.75;;;;;7.24;64.32;102039.28;5058285;28;45440;-80
2022/01/19 00:52:24;;;;;;;;;52.75;44.25;;;;;7.25;64.50;102038.47;5058444;28;45704;-80
2022/01/19 00:54:49;;;;;;;;;42.00;36.25;;;;;7.25;63.98;102035.00;5058874;28;45311;-81
2022/01/19 00:57:15;;;;;;;;;25.50;23.50;;;;;7.09;63.75;102005.34;5057937;28;46134;-76
2022/01/19 00:59:41;;;;;;;;;19.50;18.00;;;;;7.26;63.62;102050.69;5058295;28;45399;-80
2022/01/19 01:02:06;;;;;;;;;22.50;20.00;;;;;7.26;63.81;102049.78;5058412;28;45421;-78
2022/01/19 01:04:32;;;;;;;;;23.25;18.25;;;;;7.22;64.05;102046.09;5058263;28;45437;-77
2022/01/19 01:06:59;;;;;;;;;21.25;18.00;;;;;7.21;64.04;102054.66;5058129;28;45383;-76
2022/01/19 01:09:25;;;;;;;;;20.50;18.00;;;;;7.18;64.57;102054.44;5058040;28;45772;-78
2022/01/19 01:12:00;;;;;;;;;19.25;17.50;;;;;7.16;64.40;102064.75;5058404;28;45587;-79
2022/01/19 01:18:17;;;;;;;;;25.25;22.75;;;;;7.12;65.13;102059.22;5057904;28;45428;-82
2022/01/19 01:19:58;;;;;;;;;59.25;42.50;;;;;7.10;65.17;102058.22;5057407;28;45582;-76
2022/01/19 01:22:23;;;;;;;;;75.75;55.50;;;;;7.09;65.00;102059.94;5057921;28;45314;-80
2022/01/19 01:24:49;;;;;;;;;78.00;57.00;;;;;7.02;64.89;102041.22;5058359;28;45529;-74
2022/01/19 01:27:15;;;;;;;;;40.00;35.50;;;;;7.08;65.26;102041.63;5057770;28;45413;-80
2022/01/19 01:29:41;;;;;;;;;32.00;30.00;;;;;7.13;64.77;102033.34;5057508;28;45532;-81
2022/01/19 01:32:08;;;;;;;;;20.00;19.00;;;;;7.14;63.88;102035.16;5058056;28;45304;-78
2022/01/19 01:34:33;;;;;;;;;22.25;18.25;;;;;7.15;63.32;102029.16;5057942;28;45567;-78
2022/01/19 01:36:59;;;;;;;;;15.00;13.25;;;;;7.18;63.20;102023.25;5056119;28;46334;-75
2022/01/19 01:39:25;;;;;;;;;14.75;13.00;;;;;7.17;62.79;102022.38;5057573;28;45324;-80
2022/01/19 01:41:51;;;;;;;;;12.25;9.25;;;;;7.16;62.50;102030.97;5058121;28;45340;-80
2022/01/19 01:44:16;;;;;;;;;11.00;11.00;;;;;7.17;62.51;102026.66;5057989;28;45530;-80
2022/01/19 01:46:53;;;;;;;;;10.00;9.00;;;;;7.19;62.20;102017.28;5057496;28;45481;-72
2022/01/19 01:49:28;;;;;;;;;11.00;9.25;;;;;7.20;62.20;102025.97;5057533;28;45455;-72
2022/01/19 01:54:40;;;;;;;;;9.50;9.00;;;;;7.20;61.73;102016.47;5057702;28;45379;-79
2022/01/19 01:57:07;;;;;;;;;8.00;8.00;;;;;7.22;61.86;102008.78;5057268;28;46318;-79
2022/01/19 01:59:34;;;;;;;;;11.25;10.75;;;;;7.16;61.17;101994.59;5057224;28;45364;-74
2022/01/19 02:02:00;;;;;;;;;11.25;9.00;;;;;7.23;62.00;102003.69;5057425;28;45281;-80
2022/01/19 02:04:26;;;;;;;;;8.50;8.00;;;;;7.25;61.76;102003.78;5057637;28;45424;-77
2022/01/19 02:09:20;;;;;;;;;8.50;8.00;;;;;7.21;61.66;101994.88;5057125;28;45480;-79
2022/01/19 02:22:54;;;;;;;;;10.75;9.00;;;;;7.19;61.55;101999.09;5057413;28;45508;-81
2022/01/19 02:25:26;;;;;;;;;8.25;8.00;;;;;7.20;61.59;101999.97;5057335;28;45507;-81
2022/01/19 02:41:17;;;;;;;;;8.25;7.50;;;;;7.26;61.28;102005.59;5059721;28;45892;-76
2022/01/19 02:43:46;;;;;;;;;9.00;8.00;;;;;7.23;61.25;102003.69;5060396;28;45520;-80
2022/01/19 02:49:19;;;;;;;;;10.25;9.25;;;;;7.26;61.12;101996.09;5017663;28;46128;-81
2022/01/19 02:51:47;;;;;;;;;9.75;8.25;;;;;7.26;61.20;101992.59;5017921;28;45575;-77
2022/01/19 02:54:14;;;;;;;;;9.75;9.00;;;;;6.77;60.95;101910.56;5038830;28;45914;-81
2022/01/19 02:56:43;;;;;;;;;11.00;10.50;;;;;7.26;61.08;101987.38;5060090;28;45285;-79
2022/01/19 02:59:17;;;;;;;;;9.25;9.25;;;;;7.26;60.95;101988.31;5059677;28;46119;-77
2022/01/19 03:09:47;;;;;;;;;10.25;10.25;;;;;7.19;60.89;101960.09;5059927;28;46109;-77
2022/01/19 03:12:13;;;;;;;;;12.50;11.75;;;;;7.24;60.67;101963.00;5060105;28;45263;-76
2022/01/19 03:14:40;;;;;;;;;13.75;12.00;;;;;7.24;60.75;101965.59;5059926;28;45306;-78
2022/01/19 03:17:07;;;;;;;;;12.00;9.75;;;;;7.26;60.41;101969.19;5060314;28;45283;-80
2022/01/19 03:19:33;;;;;;;;;12.00;11.50;;;;;7.28;60.51;101968.53;5059538;28;46269;-75
2022/01/19 03:21:59;;;;;;;;;12.50;10.25;;;;;7.27;60.45;101964.09;5059930;28;45533;-77
2022/01/19 03:24:25;;;;;;;;;12.25;9.00;;;;;7.12;60.65;101939.69;5060226;28;45545;-82
2022/01/19 03:26:51;;;;;;;;;14.75;12.50;;;;;7.27;60.38;101961.50;5058636;28;45501;-77
2022/01/19 03:29:17;;;;;;;;;13.00;12.00;;;;;7.27;60.89;101961.50;5059786;28;45461;-77
2022/01/19 03:31:43;;;;;;;;;11.25;9.75;;;;;7.29;60.70;101964.22;5059588;28;45370;-77
2022/01/19 03:34:08;;;;;;;;;13.00;11.50;;;;;7.25;60.74;101957.91;5059787;28;45390;-81
2022/01/19 03:36:35;;;;;;;;;7.00;6.50;;;;;7.29;60.72;101959.00;5060015;28;45315;-81
2022/01/19 03:39:00;;;;;;;;;9.50;9.00;;;;;7.29;60.45;101970.31;5059449;28;45283;-73
2022/01/19 03:41:26;;;;;;;;;11.75;11.00;;;;;7.28;60.51;101965.00;5059847;28;45473;-81
2022/01/19 03:43:52;;;;;;;;;12.50;12.00;;;;;7.29;60.76;101962.50;5059711;28;45354;-76
2022/01/19 03:46:20;;;;;;;;;11.00;11.00;;;;;7.30;60.74;101972.13;5058378;28;45480;-80
2022/01/19 03:48:55;;;;;;;;;13.00;12.00;;;;;7.32;60.72;101967.00;5059157;28;46220;-72
2022/01/19 03:51:21;;;;;;;;;11.50;11.00;;;;;7.32;60.79;101967.91;5058992;28;45394;-78
2022/01/19 03:53:47;;;;;;;;;11.00;11.00;;;;;7.35;60.77;101972.41;5059213;28;45460;-81
2022/01/19 03:56:13;;;;;;;;;14.00;12.75;;;;;7.21;60.68;101950.69;5059238;28;45434;-76
2022/01/19 03:58:39;;;;;;;;;13.25;12.25;;;;;7.34;60.85;101974.13;5057507;28;47962;-80
2022/01/19 04:01:05;;;;;;;;;14.00;13.00;;;;;7.33;60.85;101979.22;5058906;28;45574;-81
2022/01/19 04:06:22;;;;;;;;;17.00;13.75;;;;;7.22;60.50;101956.78;5059193;28;45291;-79
2022/01/19 04:08:48;;;;;;;;;17.00;14.00;;;;;7.19;60.40;101949.69;5058700;28;46311;-81
2022/01/19 04:11:16;;;;;;;;;19.25;15.00;;;;;7.33;60.42;101979.22;5058638;28;45446;-81
2022/01/19 04:14:21;;;;;;;;;18.25;15.50;;;;;7.34;60.50;101984.50;5059123;28;45465;-75
2022/01/19 04:16:31;;;;;;;;;14.00;13.75;;;;;7.27;60.42;101971.00;5059217;28;45315;-78
2022/01/19 04:19:12;;;;;;;;;12.75;12.75;;;;;7.34;60.60;101976.72;5057726;28;46493;-73
2022/01/19 04:21:38;;;;;;;;;14.50;12.50;;;;;7.35;60.58;101977.59;5058737;28;45493;-79
2022/01/19 04:24:06;;;;;;;;;11.75;10.75;;;;;7.34;60.42;101974.13;5058948;28;45555;-79
2022/01/19 04:26:32;;;;;;;;;11.25;10.75;;;;;7.33;60.43;101977.50;5059245;28;45536;-76
2022/01/19 04:28:58;;;;;;;;;14.00;13.25;;;;;7.32;60.62;101988.72;5058708;28;46068;-77
2022/01/19 04:31:24;;;;;;;;;12.00;9.75;;;;;7.30;60.49;101981.59;5058847;28;45372;-79
2022/01/19 04:33:50;;;;;;;;;12.50;12.00;;;;;7.31;60.54;101984.28;5058891;28;45252;-79
2022/01/19 04:36:30;;;;;;;;;11.00;9.50;;;;;7.19;60.44;101959.22;5059163;28;45480;-79
2022/01/19 05:04:24;;;;;;;;;8.75;8.50;;;;;7.27;60.06;101977.09;5065052;28;45272;-72
2022/01/19 05:06:16;;;;;;;;;12.75;11.50;;;;;7.27;59.80;101984.91;5069223;28;45491;-72
2022/01/19 05:08:53;;;;;;;;;8.00;5.50;;;;;7.27;60.06;101981.41;5077048;28;45314;-72
2022/01/19 05:14:03;;;;;;;;;12.00;10.00;;;;;7.27;59.87;101990.09;5069274;28;45481;-72
2022/01/19 05:16:29;;;;;;;;;11.25;11.00;;;;;7.27;59.88;101990.09;5058272;28;45484;-72
2022/01/19 05:18:54;;;;;;;;;12.25;12.25;;;;;7.27;60.14;101992.69;5059995;28;45438;-78
2022/01/19 05:21:20;;;;;;;;;12.00;12.00;;;;;7.26;60.22;101996.09;5058906;28;45323;-80
2022/01/19 05:23:46;;;;;;;;;15.25;13.25;;;;;7.26;60.06;101992.59;5058797;28;45426;-70
2022/01/19 05:26:12;;;;;;;;;17.00;14.50;;;;;7.26;59.81;101993.50;5058859;28;45794;-80
2022/01/19 05:28:38;;;;;;;;;16.00;12.75;;;;;7.12;60.09;101966.59;5058154;28;45496;-74
2022/01/19 05:31:04;;;;;;;;;10.25;9.25;;;;;7.29;60.06;101992.81;5058000;28;46304;-79
2022/01/19 05:33:29;;;;;;;;;12.00;10.25;;;;;7.29;60.26;101991.09;5057780;28;45324;-82
2022/01/19 05:35:55;;;;;;;;;9.00;8.00;;;;;7.29;60.12;101991.09;5057859;28;45331;-80
2022/01/19 05:38:21;;;;;;;;;13.25;11.75;;;;;7.20;60.07;101976.59;5057936;28;45473;-81
2022/01/19 05:40:46;;;;;;;;;13.00;9.75;;;;;7.20;59.92;101974.88;5057337;28;45971;-78
2022/01/19 05:43:12;;;;;;;;;9.25;9.00;;;;;7.30;60.12;101999.78;5057517;28;45337;-78
2022/01/19 05:45:37;;;;;;;;;12.00;11.00;;;;;7.28;60.05;101989.31;5057778;28;45364;-72
2022/01/19 05:48:04;;;;;;;;;9.00;8.25;;;;;7.20;60.27;101974.88;5057000;28;45514;-77
2022/01/19 05:50:29;;;;;;;;;14.25;11.25;;;;;7.30;60.49;101992.91;5056326;28;46784;-79
2022/01/19 05:52:55;;;;;;;;;10.75;9.25;;;;;7.28;60.52;101985.78;5055767;28;45365;-77
2022/01/19 05:55:20;;;;;;;;;10.75;9.00;;;;;7.29;60.03;101991.09;5055765;28;45366;-75
2022/01/19 05:57:47;;;;;;;;;8.00;8.00;;;;;7.29;60.13;101979.81;5057061;28;45299;-80
2022/01/19 06:00:13;;;;;;;;;10.50;10.00;;;;;7.27;59.83;101974.50;5052595;28;45439;-80
2022/01/19 06:02:39;;;;;;;;;10.25;8.00;;;;;7.25;59.96;101967.41;5055748;28;45478;-81
2022/01/19 06:05:05;;;;;;;;;12.25;10.25;;;;;7.22;60.24;101965.50;5055935;28;45488;-80
2022/01/19 06:07:39;;;;;;;;;10.25;8.00;;;;;7.14;60.78;101962.41;5055680;28;45636;-77
2022/01/19 06:10:09;;;;;;;;;10.00;7.00;;;;;7.20;61.25;101963.59;5055565;28;46118;-77
2022/01/19 06:12:36;;;;;;;;;5.00;5.00;;;;;7.19;60.73;101959.22;5053341;28;45482;-77
2022/01/19 06:15:02;;;;;;;;;6.50;6.00;;;;;7.18;60.86;101953.09;5054371;28;45878;-81
2022/01/19 06:17:28;;;;;;;;;6.75;6.00;;;;;7.21;60.43;101949.81;5055511;28;45431;-74
2022/01/19 06:19:54;;;;;;;;;8.00;7.00;;;;;7.22;60.68;101951.59;5055124;28;45482;-78
2022/01/19 06:22:21;;;;;;;;;9.75;9.75;;;;;7.23;60.64;101954.31;5055294;28;45491;-79
2022/01/19 06:24:47;;;;;;;;;15.75;14.50;;;;;7.27;60.37;101953.69;5055252;28;45426;-75
2022/01/19 06:27:14;;;;;;;;;13.00;12.50;;;;;7.28;60.62;101957.19;5055442;28;45389;-77
2022/01/19 06:29:40;;;;;;;;;13.50;12.50;;;;;7.30;60.60;101955.59;5054729;28;46146;-80
2022/01/19 06:32:06;;;;;;;;;11.75;11.50;;;;;7.21;60.72;101935.09;5055290;28;45743;-74
2022/01/19 06:34:32;;;;;;;;;7.50;7.50;;;;;7.27;60.85;101939.81;5055204;28;45516;-80
2022/01/19 06:36:57;;;;;;;;;9.50;8.00;;;;;7.28;60.66;101942.53;5055287;28;45488;-78
2022/01/19 06:39:23;;;;;;;;;8.00;7.25;;;;;7.31;60.52;101942.72;5054887;28;46021;-77
2022/01/19 06:41:49;;;;;;;;;13.50;12.50;;;;;7.31;60.33;101942.72;5054862;28;45752;-75
2022/01/19 06:44:15;;;;;;;;;10.00;9.00;;;;;7.33;60.38;101948.00;5055156;28;45680;-76
2022/01/19 06:46:42;;;;;;;;;9.00;8.25;;;;;7.33;60.21;101943.72;5054991;28;45422;-73
2022/01/19 06:49:08;;;;;;;;;12.25;9.25;;;;;7.34;60.22;101949.78;5054758;28;45975;-75
2022/01/19 06:51:33;;;;;;;;;13.25;11.25;;;;;7.33;59.98;101955.81;5054788;28;45378;-75
2022/01/19 06:53:59;;;;;;;;;7.75;7.75;;;;;7.33;60.03;101959.31;5054950;28;45458;-72
2022/01/19 06:56:25;;;;;;;;;10.25;10.25;;;;;7.33;60.40;101967.09;5054914;28;45465;-74
2022/01/19 06:58:50;;;;;;;;;12.00;11.50;;;;;7.33;60.18;101961.91;5054637;28;45901;-76
2022/01/19 07:01:16;;;;;;;;;29.00;24.75;;;;;7.36;60.05;101962.13;5054703;28;45305;-76
2022/01/19 07:03:42;;;;;;;;;66.25;51.50;;;;;7.36;60.05;101959.53;5054972;28;45398;-75
2022/01/19 07:06:11;;;;;;;;;43.25;36.50;;;;;7.40;59.82;101963.22;5055259;28;45626;-78
2022/01/19 07:08:40;;;;;;;;;27.50;25.50;;;;;7.40;59.97;101972.69;5055015;28;45519;-78
2022/01/19 07:11:06;;;;;;;;;22.25;20.00;;;;;7.43;59.86;101975.50;5054807;28;45462;-78
2022/01/19 07:13:32;;;;;;;;;26.25;23.50;;;;;7.45;59.81;101971.31;5054500;28;45362;-77
2022/01/19 07:15:58;;;;;;;;;13.50;12.75;;;;;7.39;59.55;101948.41;5054907;28;45601;-76
2022/01/19 07:18:24;;;;;;;;;14.75;14.00;;;;;7.49;59.75;101971.59;5054376;28;46082;-74
2022/01/19 07:20:49;;;;;;;;;14.75;13.25;;;;;7.49;59.85;101963.81;5055029;28;45476;-77
2022/01/19 07:23:15;;;;;;;;;16.00;13.00;;;;;7.50;59.81;101969.91;5054649;28;45383;-78
2022/01/19 07:25:41;;;;;;;;;14.50;13.00;;;;;7.47;59.76;101973.22;5055079;28;45354;-77
2022/01/19 07:28:08;;;;;;;;;15.25;12.25;;;;;7.54;59.85;101974.50;5058089;28;45493;-76
2022/01/19 07:30:35;;;;;;;;;15.50;11.25;;;;;7.54;59.87;101972.81;5055672;28;45383;-79
2022/01/19 07:33:01;;;;;;;;;12.25;9.75;;;;;7.50;59.68;101962.09;5058187;28;45489;-74
2022/01/19 07:35:27;;;;;;;;;10.75;9.75;;;;;7.59;59.42;101978.31;5058139;28;45337;-77
2022/01/19 07:37:53;;;;;;;;;13.00;12.25;;;;;7.56;59.86;101967.72;5057636;28;45352;-78
2022/01/19 07:40:19;;;;;;;;;9.00;9.00;;;;;7.63;59.80;101974.22;5057767;28;45488;-77
2022/01/19 07:42:45;;;;;;;;;14.50;13.00;;;;;7.61;59.40;101971.50;5057773;28;45460;-78
2022/01/19 07:45:10;;;;;;;;;14.50;14.00;;;;;7.67;59.50;101987.50;5059165;28;45506;-76
2022/01/19 07:47:36;;;;;;;;;14.25;14.25;;;;;7.64;59.33;101974.31;5057890;28;45509;-79
2022/01/19 07:50:03;;;;;;;;;12.00;10.00;;;;;7.67;59.32;101971.91;5057936;28;45592;-78
2022/01/19 07:52:28;;;;;;;;;12.00;11.00;;;;;7.69;59.27;101974.59;5057921;28;45536;-75
2022/01/19 07:54:54;;;;;;;;;13.50;10.00;;;;;7.68;59.05;101964.97;5057517;28;45438;-79
2022/01/19 07:57:20;;;;;;;;;9.75;8.25;;;;;7.68;59.09;101975.38;5057213;28;45558;-78
2022/01/19 07:59:46;;;;;;;;;10.00;10.00;;;;;7.61;59.29;101970.63;5050476;28;45504;-77
2022/01/19 08:02:12;;;;;;;;;13.00;12.75;;;;;7.68;59.23;101986.72;5057308;28;45500;-79
2022/01/19 08:04:38;;;;;;;;;11.25;10.25;;;;;7.69;59.24;101979.81;5058001;28;45728;-76
2022/01/19 08:07:04;;;;;;;;;11.00;10.25;;;;;7.72;59.08;101986.13;5057279;28;45929;-77
2022/01/19 08:09:31;;;;;;;;;20.25;17.50;;;;;7.73;59.33;101995.69;5057139;28;45338;-74
2022/01/19 08:11:56;;;;;;;;;13.50;12.00;;;;;7.73;59.88;101990.50;5055024;28;45392;-77
2022/01/19 08:14:24;;;;;;;;;14.00;12.00;;;;;7.70;59.97;101989.41;5057562;28;45292;-73
2022/01/19 08:16:51;;;;;;;;;20.50;18.75;;;;;7.76;59.95;101990.72;5057195;28;46149;-75
2022/01/19 08:19:16;;;;;;;;;18.00;18.00;;;;;7.73;59.98;101977.50;5054655;28;46282;-73
2022/01/19 08:21:42;;;;;;;;;9.00;9.00;;;;;7.71;59.97;101979.09;5058725;28;45334;-74
2022/01/19 08:24:07;;;;;;;;;8.00;8.00;;;;;7.84;60.12;101990.28;5057511;28;45321;-76
2022/01/19 08:26:33;;;;;;;;;13.00;12.25;;;;;7.89;60.18;101999.28;5056957;28;46005;-73
2022/01/19 08:28:59;;;;;;;;;12.00;9.75;;;;;7.89;59.83;102000.19;5057020;28;45434;-80
2022/01/19 08:31:24;;;;;;;;;12.75;10.75;;;;;7.92;59.92;102003.00;5054723;28;45517;-74
2022/01/19 08:33:50;;;;;;;;;14.00;12.25;;;;;7.95;60.01;102005.78;5055050;28;45621;-75
2022/01/19 08:36:16;;;;;;;;;24.25;21.50;;;;;7.99;60.19;102008.59;5048774;28;45617;-74
2022/01/19 08:38:42;;;;;;;;;23.75;21.00;;;;;8.02;60.02;102009.69;5054115;28;45496;-74
2022/01/19 08:41:09;;;;;;;;;17.75;13.50;;;;;8.05;59.81;102014.19;5056287;28;45830;-73
2022/01/19 08:43:35;;;;;;;;;19.25;17.50;;;;;8.07;59.69;102016.06;5057153;28;45492;-80
2022/01/19 08:46:00;;;;;;;;;42.50;37.00;;;;;8.05;59.94;102001.19;5056512;28;46103;-77
2022/01/19 08:48:27;;;;;;;;;38.75;35.50;;;;;8.14;59.57;102014.78;5055767;28;45897;-75
2022/01/19 08:50:54;;;;;;;;;26.50;22.00;;;;;8.16;59.27;102019.28;5055537;28;46427;-74
2022/01/19 08:53:20;;;;;;;;;21.25;20.00;;;;;8.17;59.00;102013.25;5055684;28;45400;-74
2022/01/19 08:55:45;;;;;;;;;24.25;21.50;;;;;8.22;58.97;102020.47;5055686;28;45967;-75
2022/01/19 08:58:13;;;;;;;;;18.00;15.50;;;;;8.21;58.78;102010.84;5055666;28;45453;-74
2022/01/19 09:00:40;;;;;;;;;15.25;14.75;;;;;8.28;58.72;102028.66;5055352;28;45499;-72
2022/01/19 09:03:06;;;;;;;;;22.75;21.00;;;;;8.33;58.43;102029.84;5055287;28;45560;-74
2022/01/19 09:05:32;;;;;;;;;15.50;14.75;;;;;8.38;58.46;102031.03;5053185;28;46086;-73
2022/01/19 09:07:58;;;;;;;;;16.75;13.75;;;;;8.46;58.14;102034.16;5057596;28;45349;-74
2022/01/19 09:10:25;;;;;;;;;16.75;15.50;;;;;8.48;57.80;102033.44;5057218;28;45386;-73
2022/01/19 09:12:50;;;;;;;;;14.00;13.00;;;;;8.43;57.53;102023.53;5057844;28;45486;-72
2022/01/19 09:15:18;;;;;;;;;14.00;14.00;;;;;8.52;57.77;102032.81;5057428;28;45369;-74
2022/01/19 09:17:44;;;;;;;;;16.75;16.00;;;;;8.56;57.57;102036.53;5057814;28;45395;-73
2022/01/19 09:20:12;;;;;;;;;22.25;20.50;;;;;8.59;57.37;102036.69;5057906;28;45609;-72
2022/01/19 09:22:39;;;;;;;;;11.00;10.50;;;;;8.61;57.35;102042.00;5058267;28;45353;-75
2022/01/19 09:25:06;;;;;;;;;10.00;8.75;;;;;8.62;57.50;102039.50;5057665;28;45498;-75
2022/01/19 09:27:33;;;;;;;;;8.00;8.00;;;;;8.66;57.08;102038.00;5057571;28;45490;-75
2022/01/19 09:30:00;;;;;;;;;7.75;6.25;;;;;8.65;56.96;102036.19;5058010;28;45479;-76
2022/01/19 09:32:26;;;;;;;;;8.00;7.50;;;;;8.68;57.34;102046.81;5058054;28;45447;-72
2022/01/19 09:34:56;;;;;;;;;12.50;10.50;;;;;8.67;56.82;102042.38;5057640;28;45240;-73
2022/01/19 09:37:23;;;;;;;;;29.75;25.75;;;;;8.66;56.66;102048.41;5057507;28;45264;-73
2022/01/19 09:39:49;;;;;;;;;21.00;18.00;;;;;8.65;56.59;102052.72;5055926;28;45352;-70
2022/01/19 09:42:15;;;;;;;;;26.50;22.50;;;;;8.65;56.73;102057.03;5053630;28;45336;-70
2022/01/19 09:44:40;;;;;;;;;24.75;23.00;;;;;8.54;56.92;102043.34;5056593;28;46267;-73
2022/01/19 09:47:07;;;;;;;;;36.75;31.25;;;;;8.60;57.08;102058.47;5057701;28;45416;-71
2022/01/19 09:49:33;;;;;;;;;50.00;41.75;;;;;8.62;57.67;102064.66;5057063;28;45568;-71
2022/01/19 09:51:59;;;;;;;;;33.50;30.75;;;;;8.65;58.22;102075.25;5057707;28;45556;-75
2022/01/19 09:54:29;;;;;;;;;41.00;36.25;;;;;8.60;58.66;102071.50;5057318;28;45509;-69
2022/01/19 09:56:55;;;;;;;;;50.00;40.25;;;;;8.60;58.99;102075.00;5057096;28;45709;-70
2022/01/19 09:59:22;;;;;;;;;54.00;42.75;;;;;8.59;59.46;102072.28;5057543;28;45428;-68
2022/01/19 10:02:02;;;;;;;;;55.75;42.00;;;;;8.61;59.23;102078.47;5057699;28;45319;-69
2022/01/19 10:04:33;;;;;;;;;44.75;38.75;;;;;8.60;59.18;102079.31;5057322;28;46222;-70
2022/01/19 10:07:19;;;;;;;;;62.50;46.50;;;;;8.59;59.02;102072.28;5057290;28;45377;-68
2022/01/19 10:09:52;;;;;;;;;77.00;57.00;;;;;8.62;58.67;102082.91;5057402;28;45421;-68
2022/01/19 10:18:29;;;;;;;;;94.00;72.75;;;;;8.68;59.21;102073.75;5057129;28;45756;-68
2022/01/19 10:21:04;;;;;;;;;100.00;87.00;;;;;8.80;58.52;102080.53;5056888;28;45520;-70
2022/01/19 10:23:48;;;;;;;;;74.50;56.75;;;;;8.90;57.92;102086.41;5057369;28;45255;-69
2022/01/19 10:26:22;;;;;;;;;27.00;23.75;;;;;9.06;57.23;102077.81;5056897;28;46211;-68
2022/01/19 10:29:14;;;;;;;;;21.00;19.00;;;;;9.32;56.94;102081.09;5056881;28;45318;-69
2022/01/19 10:31:44;;;;;;;;;15.50;14.00;;;;;9.40;56.05;102058.06;5055720;28;45537;-69
2022/01/19 10:34:22;;;;;;;;;24.75;20.75;;;;;9.65;56.19;102082.19;5057059;28;45429;-69
2022/01/19 10:36:55;;;;;;;;;25.00;23.00;;;;;9.83;55.92;102065.75;5056454;28;45326;-68
2022/01/19 10:39:23;;;;;;;;;22.75;16.50;;;;;10.03;54.89;102064.31;5056592;28;45491;-68
2022/01/19 10:42:00;;;;;;;;;15.75;15.75;;;;;10.25;54.73;102048.13;5056641;28;45306;-68
2022/01/19 10:44:41;;;;;;;;;12.50;9.50;;;;;10.34;54.05;102041.75;5056868;28;45178;-73
2022/01/19 10:47:08;;;;;;;;;7.00;7.00;;;;;10.38;53.32;102037.56;5056599;28;46208;-75
2022/01/19 10:49:53;;;;;;;;;9.75;9.75;;;;;10.46;53.48;102048.41;5056759;28;45445;-74
2022/01/19 10:52:28;;;;;;;;;11.75;11.75;;;;;10.67;52.95;102056.53;5056552;28;45502;-75
2022/01/19 10:54:54;;;;;;;;;11.75;10.50;;;;;10.81;52.45;102044.22;5056777;28;45310;-71
2022/01/19 10:57:20;;;;;;;;;8.00;7.75;;;;;10.97;52.11;102044.19;5055790;28;45449;-69
2022/01/19 10:59:45;;;;;;;;;6.00;6.00;;;;;11.17;52.08;102052.19;5056523;28;45488;-69
2022/01/19 11:02:12;;;;;;;;;7.75;6.75;;;;;11.29;52.22;102056.31;5059586;28;45327;-69
2022/01/19 11:04:40;;;;;;;;;10.50;7.00;;;;;11.29;51.47;102045.84;5060164;28;45432;-72
2022/01/19 11:07:11;;;;;;;;;7.50;6.00;;;;;11.19;51.85;102046.19;5059723;28;45541;-78
2022/01/19 11:09:46;;;;;;;;;15.00;12.75;;;;;11.32;51.78;102046.00;5056631;28;45814;-74
2022/01/19 11:12:18;;;;;;;;;20.75;19.50;;;;;11.73;51.33;102036.69;5064249;28;45491;-73
2022/01/19 11:14:45;;;;;;;;;22.50;17.75;;;;;11.99;50.56;102039.72;5077957;27;45545;-72
2022/01/19 11:17:12;;;;;;;;;26.75;20.25;;;;;12.04;50.28;102034.72;5044500;27;46064;-73
2022/01/19 11:19:39;;;;;;;;;15.00;12.00;;;;;12.12;50.31;102021.16;5078810;28;45339;-75
2022/01/19 11:22:23;;;;;;;;;24.50;23.25;;;;;12.32;50.07;102026.44;5079772;27;45495;-72
2022/01/19 11:25:04;;;;;;;;;18.00;16.25;;;;;12.22;49.88;102029.47;5080107;27;45483;-72
2022/01/19 11:27:43;;;;;;;;;25.00;22.50;;;;;12.01;50.38;102019.72;5079893;27;45358;-74
2022/01/19 11:30:29;;;;;;;;;28.75;26.00;;;;;11.88;50.91;102018.22;5079201;27;45413;-76
2022/01/19 11:33:09;;;;;;;;;33.25;28.50;;;;;11.98;50.74;102011.75;5079929;27;45472;-76
2022/01/19 11:35:36;;;;;;;;;13.75;13.25;;;;;12.08;50.38;102008.75;5080225;28;45230;-73
2022/01/19 11:38:34;;;;;;;;;22.00;21.25;;;;;12.16;50.48;102005.59;5079861;27;45390;-76
2022/01/19 11:41:02;;;;;;;;;21.50;20.25;;;;;12.27;50.11;102004.34;5079631;27;45238;-73
2022/01/19 11:43:30;;;;;;;;;18.25;16.75;;;;;12.50;49.68;101987.06;5079893;27;45267;-73
2022/01/19 11:46:03;;;;;;;;;9.50;8.75;;;;;12.78;49.19;101990.94;5078750;28;45624;-74
2022/01/19 11:48:35;;;;;;;;;11.50;9.00;;;;;13.19;48.58;101979.59;5079649;27;46035;-76
2022/01/19 11:51:31;;;;;;;;;11.00;9.00;;;;;13.82;48.30;101973.41;5079575;27;45227;-76
2022/01/19 11:54:03;;;;;;;;;7.75;7.00;;;;;14.39;48.08;101975.59;5079000;27;45350;-75
2022/01/19 11:56:29;;;;;;;;;13.75;13.25;;;;;14.67;45.93;101949.47;5079786;27;45501;-73
2022/01/19 11:59:07;;;;;;;;;18.00;16.25;;;;;15.06;45.02;101953.44;5079185;27;46025;-73
2022/01/19 12:01:33;;;;;;;;;19.50;15.50;;;;;15.21;44.26;101953.97;5079550;27;45551;-77
2022/01/19 12:04:19;;;;;;;;;16.50;15.50;;;;;15.23;44.06;101948.75;5079775;27;45337;-73
2022/01/19 12:06:46;;;;;;;;;13.00;13.00;;;;;15.16;44.10;101954.66;5080067;27;45340;-72
2022/01/19 12:09:14;;;;;;;;;11.00;10.33;;;;;15.04;44.34;101945.53;5079168;27;46088;-72
2022/01/19 12:11:46;;;;;;;;;6.00;6.00;;;;;15.00;44.54;101942.72;5079148;28;45317;-75
2022/01/19 12:14:21;;;;;;;;;10.33;9.00;;;;;14.90;44.44;101930.97;5078620;27;45230;-76
2022/01/19 12:17:03;;;;;;;;;12.25;12.25;;;;;14.71;44.19;101913.69;5079812;27;45437;-75
2022/01/19 12:19:38;;;;;;;;;9.33;9.00;;;;;14.75;45.15;101933.09;5078976;28;46057;-75
2022/01/19 12:22:28;;;;;;;;;13.33;12.67;;;;;14.68;45.00;101927.63;5079196;27;45283;-72
2022/01/19 12:25:00;;;;;;;;;7.67;7.00;;;;;14.70;45.42;101931.19;5079327;27;45475;-73
2022/01/19 12:27:33;;;;;;;;;11.67;10.67;;;;;14.72;45.27;101925.97;5078081;28;45447;-77
2022/01/19 12:29:58;;;;;;;;;15.00;13.00;;;;;14.76;45.07;101917.34;5078987;28;45223;-76
2022/01/19 12:32:27;;;;;;;;;15.50;15.50;;;;;14.80;44.73;101920.97;5079075;27;45458;-75
2022/01/19 12:35:10;;;;;;;;;20.50;18.25;;;;;14.85;45.10;101907.16;5079232;27;45437;-75
2022/01/19 12:37:37;;;;;;;;;12.00;12.00;;;;;14.88;44.29;101902.00;5079275;28;45223;-74
2022/01/19 12:40:06;;;;;;;;;13.00;12.00;;;;;14.83;45.46;101897.41;5078587;27;45302;-75
2022/01/19 12:42:43;;;;;;;;;15.00;14.00;;;;;14.67;45.96;101890.75;5078734;28;45508;-76
2022/01/19 12:45:25;;;;;;;;;11.00;9.00;;;;;14.52;45.88;101897.22;5079048;27;45500;-76